sensor_id;sensor_type;location;lat;lon;timestamp;pressure;altitude;pressure_sealevel;temperature;humidity
43878;BME280;29815;48.184;11.268;2023-02-11T00:00:03;97442.59;;;-2.86;100.00
43878;BME280;29815;48.184;11.268;2023-02-11T00:02:34;97446.91;;;-2.94;100.00
43878;BME280;29815;48.184;11.268;2023-02-11T00:05:05;97438.75;;;-3.01;100.00
43878;BME280;29815;48.184;11.268;2023-02-11T00:07:35;97446.47;;;-2.99;100.00
43878;BME280;29815;48.184;11.268;2023-02-11T00:10:07;97437.22;;;-3.03;100.00
43878;BME280;29815;48.184;11.268;2023-02-11T00:12:37;97446.78;;;-3.02;100.00
43878;BME280;29815;48.184;11.268;2023-02-11T00:15:08;97442.91;;;-3.08;100.00
43878;BME280;29815;48.184;11.268;2023-02-11T00:17:38;97450.38;;;-3.13;100.00
43878;BME280;29815;48.184;11.268;2023-02-11T00:20:09;97447.19;;;-3.17;100.00
43878;BME280;29815;48.184;11.268;2023-02-11T00:22:38;97437.91;;;-3.21;100.00
43878;BME280;29815;48.184;11.268;2023-02-11T00:25:09;97444.84;;;-3.29;100.00
43878;BME280;29815;48.184;11.268;2023-02-11T00:27:39;97432.66;;;-3.30;100.00
43878;BME280;29815;48.184;11.268;2023-02-11T00:30:11;97438.31;;;-3.25;100.00
43878;BME280;29815;48.184;11.268;2023-02-11T00:32:41;97425.97;;;-3.25;100.00
43878;BME280;29815;48.184;11.268;2023-02-11T00:35:10;97424.75;;;-3.30;100.00
43878;BME280;29815;48.184;11.268;2023-02-11T00:37:40;97427.50;;;-3.32;100.00
43878;BME280;29815;48.184;11.268;2023-02-11T00:40:12;97418.78;;;-3.32;100.00
43878;BME280;29815;48.184;11.268;2023-02-11T00:42:43;97418.66;;;-3.31;100.00
43878;BME280;29815;48.184;11.268;2023-02-11T00:45:12;97414.50;;;-3.33;100.00
43878;BME280;29815;48.184;11.268;2023-02-11T00:47:42;97416.69;;;-3.38;100.00
43878;BME280;29815;48.184;11.268;2023-02-11T00:50:11;97415.47;;;-3.34;100.00
43878;BME280;29815;48.184;11.268;2023-02-11T00:52:41;97412.41;;;-3.30;100.00
43878;BME280;29815;48.184;11.268;2023-02-11T00:55:11;97422.66;;;-3.27;100.00
43878;BME280;29815;48.184;11.268;2023-02-11T00:57:41;97422.38;;;-3.24;100.00
43878;BME280;29815;48.184;11.268;2023-02-11T01:00:13;97414.91;;;-3.19;100.00
43878;BME280;29815;48.184;11.268;2023-02-11T01:02:45;97418.34;;;-3.18;100.00
43878;BME280;29815;48.184;11.268;2023-02-11T01:05:14;97410.59;;;-3.10;100.00
43878;BME280;29815;48.184;11.268;2023-02-11T01:07:44;97416.03;;;-3.02;100.00
43878;BME280;29815;48.184;11.268;2023-02-11T01:10:15;97409.59;;;-2.99;100.00
43878;BME280;29815;48.184;11.268;2023-02-11T01:12:44;97419.31;;;-3.00;100.00
43878;BME280;29815;48.184;11.268;2023-02-11T01:15:15;97424.31;;;-2.97;100.00
43878;BME280;29815;48.184;11.268;2023-02-11T01:17:46;97415.31;;;-3.04;100.00
43878;BME280;29815;48.184;11.268;2023-02-11T01:20:24;97406.31;;;-3.01;100.00
43878;BME280;29815;48.184;11.268;2023-02-11T01:22:57;97413.06;;;-2.99;100.00
43878;BME280;29815;48.184;11.268;2023-02-11T01:25:27;97409.47;;;-2.98;100.00
43878;BME280;29815;48.184;11.268;2023-02-11T01:27:57;97415.44;;;-2.96;100.00
43878;BME280;29815;48.184;11.268;2023-02-11T01:30:26;97408.38;;;-2.95;100.00
43878;BME280;29815;48.184;11.268;2023-02-11T01:32:56;97416.84;;;-3.01;100.00
43878;BME280;29815;48.184;11.268;2023-02-11T01:35:25;97411.41;;;-3.00;100.00
43878;BME280;29815;48.184;11.268;2023-02-11T01:37:56;97416.28;;;-3.15;100.00
43878;BME280;29815;48.184;11.268;2023-02-11T01:40:27;97412.97;;;-3.17;100.00
43878;BME280;29815;48.184;11.268;2023-02-11T01:42:56;97414.19;;;-3.21;100.00
43878;BME280;29815;48.184;11.268;2023-02-11T01:46:00;97418.06;;;-3.25;100.00
43878;BME280;29815;48.184;11.268;2023-02-11T01:48:42;97404.66;;;-3.31;100.00
43878;BME280;29815;48.184;11.268;2023-02-11T01:51:20;97413.50;;;-3.23;100.00
43878;BME280;29815;48.184;11.268;2023-02-11T01:53:52;97405.47;;;-3.21;100.00
43878;BME280;29815;48.184;11.268;2023-02-11T01:56:45;97401.44;;;-3.25;100.00
43878;BME280;29815;48.184;11.268;2023-02-11T01:59:40;97395.06;;;-3.23;100.00
43878;BME280;29815;48.184;11.268;2023-02-11T02:02:15;97403.56;;;-3.29;100.00
43878;BME280;29815;48.184;11.268;2023-02-11T02:04:51;97408.41;;;-3.34;100.00
43878;BME280;29815;48.184;11.268;2023-02-11T02:07:31;97408.09;;;-3.41;100.00
43878;BME280;29815;48.184;11.268;2023-02-11T02:10:08;97404.34;;;-3.48;100.00
43878;BME280;29815;48.184;11.268;2023-02-11T02:12:42;97390.91;;;-3.45;100.00
43878;BME280;29815;48.184;11.268;2023-02-11T02:15:31;97393.69;;;-3.46;100.00
43878;BME280;29815;48.184;11.268;2023-02-11T02:18:16;97394.38;;;-3.54;100.00
43878;BME280;29815;48.184;11.268;2023-02-11T02:21:43;97390.91;;;-3.64;100.00
43878;BME280;29815;48.184;11.268;2023-02-11T02:24:48;97389.66;;;-3.69;100.00
43878;BME280;29815;48.184;11.268;2023-02-11T02:27:45;97382.28;;;-3.76;100.00
43878;BME280;29815;48.184;11.268;2023-02-11T02:31:02;97367.91;;;-3.71;100.00
43878;BME280;29815;48.184;11.268;2023-02-11T02:33:51;97364.00;;;-3.77;100.00
43878;BME280;29815;48.184;11.268;2023-02-11T02:36:27;97365.84;;;-3.68;100.00
43878;BME280;29815;48.184;11.268;2023-02-11T02:39:07;97360.84;;;-3.71;100.00
43878;BME280;29815;48.184;11.268;2023-02-11T02:41:38;97356.13;;;-3.67;100.00
43878;BME280;29815;48.184;11.268;2023-02-11T02:44:08;97355.31;;;-3.68;100.00
43878;BME280;29815;48.184;11.268;2023-02-11T02:46:38;97347.41;;;-3.78;100.00
43878;BME280;29815;48.184;11.268;2023-02-11T02:49:12;97345.47;;;-3.85;100.00
43878;BME280;29815;48.184;11.268;2023-02-11T02:52:08;97343.50;;;-3.93;100.00
43878;BME280;29815;48.184;11.268;2023-02-11T02:55:16;97336.84;;;-3.97;100.00
43878;BME280;29815;48.184;11.268;2023-02-11T02:58:36;97329.81;;;-3.96;100.00
43878;BME280;29815;48.184;11.268;2023-02-11T03:01:26;97331.72;;;-3.98;100.00
43878;BME280;29815;48.184;11.268;2023-02-11T03:04:09;97325.06;;;-4.02;100.00
43878;BME280;29815;48.184;11.268;2023-02-11T03:06:50;97313.44;;;-4.10;100.00
43878;BME280;29815;48.184;11.268;2023-02-11T03:09:28;97307.63;;;-4.13;100.00
43878;BME280;29815;48.184;11.268;2023-02-11T03:12:02;97298.50;;;-4.19;100.00
43878;BME280;29815;48.184;11.268;2023-02-11T03:14:33;97311.50;;;-4.17;100.00
43878;BME280;29815;48.184;11.268;2023-02-11T03:17:05;97304.72;;;-4.20;100.00
43878;BME280;29815;48.184;11.268;2023-02-11T03:19:44;97294.59;;;-4.24;100.00
43878;BME280;29815;48.184;11.268;2023-02-11T03:22:19;97290.56;;;-4.28;100.00
43878;BME280;29815;48.184;11.268;2023-02-11T03:24:54;97293.72;;;-4.34;100.00
43878;BME280;29815;48.184;11.268;2023-02-11T03:27:25;97300.38;;;-4.30;100.00
43878;BME280;29815;48.184;11.268;2023-02-11T03:30:05;97306.75;;;-4.33;100.00
43878;BME280;29815;48.184;11.268;2023-02-11T03:32:42;97307.84;;;-4.35;100.00
43878;BME280;29815;48.184;11.268;2023-02-11T03:35:22;97305.66;;;-4.40;100.00
43878;BME280;29815;48.184;11.268;2023-02-11T03:37:59;97312.13;;;-4.44;100.00
43878;BME280;29815;48.184;11.268;2023-02-11T03:40:37;97309.38;;;-4.43;100.00
43878;BME280;29815;48.184;11.268;2023-02-11T03:43:12;97322.50;;;-4.43;100.00
43878;BME280;29815;48.184;11.268;2023-02-11T03:45:46;97324.44;;;-4.45;100.00
43878;BME280;29815;48.184;11.268;2023-02-11T03:48:24;97326.50;;;-4.48;100.00
43878;BME280;29815;48.184;11.268;2023-02-11T03:50:58;97325.78;;;-4.50;100.00
43878;BME280;29815;48.184;11.268;2023-02-11T03:53:31;97329.56;;;-4.43;100.00
43878;BME280;29815;48.184;11.268;2023-02-11T03:56:04;97327.75;;;-4.43;100.00
43878;BME280;29815;48.184;11.268;2023-02-11T03:58:37;97313.84;;;-4.24;100.00
43878;BME280;29815;48.184;11.268;2023-02-11T04:01:06;97313.28;;;-4.08;100.00
43878;BME280;29815;48.184;11.268;2023-02-11T04:03:36;97307.50;;;-4.02;100.00
43878;BME280;29815;48.184;11.268;2023-02-11T04:06:09;97309.47;;;-3.94;100.00
43878;BME280;29815;48.184;11.268;2023-02-11T04:08:39;97292.84;;;-3.95;100.00
43878;BME280;29815;48.184;11.268;2023-02-11T04:11:08;97307.13;;;-3.88;100.00
43878;BME280;29815;48.184;11.268;2023-02-11T04:13:38;97317.50;;;-3.86;100.00
43878;BME280;29815;48.184;11.268;2023-02-11T04:16:07;97337.84;;;-3.79;100.00
43878;BME280;29815;48.184;11.268;2023-02-11T04:18:37;97331.19;;;-3.83;100.00
43878;BME280;29815;48.184;11.268;2023-02-11T04:21:06;97326.38;;;-3.87;100.00
43878;BME280;29815;48.184;11.268;2023-02-11T04:23:37;97319.56;;;-3.90;100.00
43878;BME280;29815;48.184;11.268;2023-02-11T04:26:07;97325.91;;;-4.02;100.00
43878;BME280;29815;48.184;11.268;2023-02-11T04:28:36;97329.38;;;-4.11;100.00
43878;BME280;29815;48.184;11.268;2023-02-11T04:31:06;97345.69;;;-4.17;100.00
43878;BME280;29815;48.184;11.268;2023-02-11T04:33:35;97364.34;;;-4.20;100.00
43878;BME280;29815;48.184;11.268;2023-02-11T04:36:06;97354.34;;;-4.26;100.00
43878;BME280;29815;48.184;11.268;2023-02-11T04:38:37;97375.00;;;-4.22;100.00
43878;BME280;29815;48.184;11.268;2023-02-11T04:41:07;97381.66;;;-4.18;100.00
43878;BME280;29815;48.184;11.268;2023-02-11T04:43:36;97377.78;;;-4.14;100.00
43878;BME280;29815;48.184;11.268;2023-02-11T04:46:06;97380.28;;;-4.12;100.00
43878;BME280;29815;48.184;11.268;2023-02-11T04:48:35;97377.09;;;-4.16;100.00
43878;BME280;29815;48.184;11.268;2023-02-11T04:51:05;97371.94;;;-4.27;100.00
43878;BME280;29815;48.184;11.268;2023-02-11T04:53:34;97376.03;;;-4.34;100.00
43878;BME280;29815;48.184;11.268;2023-02-11T04:56:07;97379.63;;;-4.35;100.00
43878;BME280;29815;48.184;11.268;2023-02-11T04:58:36;97377.81;;;-4.44;100.00
43878;BME280;29815;48.184;11.268;2023-02-11T05:01:06;97382.00;;;-4.41;100.00
43878;BME280;29815;48.184;11.268;2023-02-11T05:03:36;97379.75;;;-4.46;100.00
43878;BME280;29815;48.184;11.268;2023-02-11T05:06:06;97380.72;;;-4.47;100.00
43878;BME280;29815;48.184;11.268;2023-02-11T05:08:37;97386.53;;;-4.44;100.00
43878;BME280;29815;48.184;11.268;2023-02-11T05:11:15;97382.69;;;-4.39;100.00
43878;BME280;29815;48.184;11.268;2023-02-11T05:13:46;97379.38;;;-4.32;100.00
43878;BME280;29815;48.184;11.268;2023-02-11T05:16:17;97365.56;;;-4.24;100.00
43878;BME280;29815;48.184;11.268;2023-02-11T05:18:47;97367.69;;;-4.18;100.00
43878;BME280;29815;48.184;11.268;2023-02-11T05:21:19;97372.41;;;-4.12;100.00
43878;BME280;29815;48.184;11.268;2023-02-11T05:23:49;97370.31;;;-4.09;100.00
43878;BME280;29815;48.184;11.268;2023-02-11T05:26:20;97359.00;;;-3.99;100.00
43878;BME280;29815;48.184;11.268;2023-02-11T05:28:49;97356.41;;;-3.90;100.00
43878;BME280;29815;48.184;11.268;2023-02-11T05:31:19;97356.13;;;-3.87;100.00
43878;BME280;29815;48.184;11.268;2023-02-11T05:33:48;97358.50;;;-3.84;100.00
43878;BME280;29815;48.184;11.268;2023-02-11T05:36:19;97343.81;;;-3.77;100.00
43878;BME280;29815;48.184;11.268;2023-02-11T05:38:49;97346.47;;;-3.57;100.00
43878;BME280;29815;48.184;11.268;2023-02-11T05:41:20;97338.69;;;-3.39;100.00
43878;BME280;29815;48.184;11.268;2023-02-11T05:43:49;97338.16;;;-3.33;100.00
43878;BME280;29815;48.184;11.268;2023-02-11T05:46:19;97334.66;;;-3.24;100.00
43878;BME280;29815;48.184;11.268;2023-02-11T05:48:49;97332.16;;;-3.16;100.00
43878;BME280;29815;48.184;11.268;2023-02-11T05:51:18;97333.81;;;-3.15;100.00
43878;BME280;29815;48.184;11.268;2023-02-11T05:53:48;97320.09;;;-3.09;100.00
43878;BME280;29815;48.184;11.268;2023-02-11T05:56:19;97317.88;;;-3.04;100.00
43878;BME280;29815;48.184;11.268;2023-02-11T05:58:49;97301.47;;;-2.98;100.00
43878;BME280;29815;48.184;11.268;2023-02-11T06:01:19;97306.19;;;-2.92;100.00
43878;BME280;29815;48.184;11.268;2023-02-11T06:03:48;97315.47;;;-2.88;100.00
43878;BME280;29815;48.184;11.268;2023-02-11T06:06:18;97313.19;;;-2.73;100.00
43878;BME280;29815;48.184;11.268;2023-02-11T06:08:47;97305.25;;;-2.63;100.00
43878;BME280;29815;48.184;11.268;2023-02-11T06:11:17;97312.69;;;-2.49;100.00
43878;BME280;29815;48.184;11.268;2023-02-11T06:13:48;97305.97;;;-2.44;100.00
43878;BME280;29815;48.184;11.268;2023-02-11T06:16:18;97324.59;;;-2.45;100.00
43878;BME280;29815;48.184;11.268;2023-02-11T06:18:47;97329.72;;;-2.44;100.00
43878;BME280;29815;48.184;11.268;2023-02-11T06:21:17;97337.06;;;-2.38;100.00
43878;BME280;29815;48.184;11.268;2023-02-11T06:23:46;97329.53;;;-2.32;100.00
43878;BME280;29815;48.184;11.268;2023-02-11T06:26:19;97329.56;;;-2.42;100.00
43878;BME280;29815;48.184;11.268;2023-02-11T06:28:51;97339.13;;;-2.41;100.00
43878;BME280;29815;48.184;11.268;2023-02-11T06:31:21;97334.84;;;-2.42;100.00
43878;BME280;29815;48.184;11.268;2023-02-11T06:33:50;97331.84;;;-2.47;100.00
43878;BME280;29815;48.184;11.268;2023-02-11T06:36:22;97322.91;;;-2.46;100.00
43878;BME280;29815;48.184;11.268;2023-02-11T06:38:51;97317.81;;;-2.48;100.00
43878;BME280;29815;48.184;11.268;2023-02-11T06:41:21;97322.78;;;-2.45;100.00
43878;BME280;29815;48.184;11.268;2023-02-11T06:43:53;97321.94;;;-2.45;100.00
43878;BME280;29815;48.184;11.268;2023-02-11T06:46:22;97318.72;;;-2.39;100.00
43878;BME280;29815;48.184;11.268;2023-02-11T06:48:52;97315.69;;;-2.44;100.00
43878;BME280;29815;48.184;11.268;2023-02-11T06:51:23;97328.59;;;-2.41;100.00
43878;BME280;29815;48.184;11.268;2023-02-11T06:53:53;97321.50;;;-2.41;100.00
43878;BME280;29815;48.184;11.268;2023-02-11T06:56:23;97324.28;;;-2.42;100.00
43878;BME280;29815;48.184;11.268;2023-02-11T06:58:56;97329.28;;;-2.39;100.00
43878;BME280;29815;48.184;11.268;2023-02-11T07:01:26;97332.31;;;-2.34;100.00
43878;BME280;29815;48.184;11.268;2023-02-11T07:03:56;97339.00;;;-2.40;100.00
43878;BME280;29815;48.184;11.268;2023-02-11T07:06:26;97350.09;;;-2.36;100.00
43878;BME280;29815;48.184;11.268;2023-02-11T07:08:56;97354.09;;;-2.32;100.00
43878;BME280;29815;48.184;11.268;2023-02-11T07:11:27;97353.41;;;-2.34;100.00
43878;BME280;29815;48.184;11.268;2023-02-11T07:14:03;97351.88;;;-2.27;100.00
43878;BME280;29815;48.184;11.268;2023-02-11T07:16:36;97346.84;;;-2.20;100.00
43878;BME280;29815;48.184;11.268;2023-02-11T07:19:06;97346.09;;;-2.13;100.00
43878;BME280;29815;48.184;11.268;2023-02-11T07:21:36;97357.47;;;-2.12;100.00
43878;BME280;29815;48.184;11.268;2023-02-11T07:24:06;97347.72;;;-2.02;100.00
43878;BME280;29815;48.184;11.268;2023-02-11T07:26:38;97331.28;;;-1.96;100.00
43878;BME280;29815;48.184;11.268;2023-02-11T07:29:09;97328.13;;;-1.99;100.00
43878;BME280;29815;48.184;11.268;2023-02-11T07:31:39;97325.47;;;-1.99;100.00
43878;BME280;29815;48.184;11.268;2023-02-11T07:34:09;97316.59;;;-1.98;100.00
43878;BME280;29815;48.184;11.268;2023-02-11T07:36:39;97307.00;;;-1.99;100.00
43878;BME280;29815;48.184;11.268;2023-02-11T07:39:10;97305.06;;;-1.97;100.00
43878;BME280;29815;48.184;11.268;2023-02-11T07:41:40;97299.16;;;-1.91;100.00
43878;BME280;29815;48.184;11.268;2023-02-11T07:44:12;97308.72;;;-1.90;100.00
43878;BME280;29815;48.184;11.268;2023-02-11T07:46:41;97319.22;;;-1.81;100.00
43878;BME280;29815;48.184;11.268;2023-02-11T07:49:12;97313.31;;;-1.65;100.00
43878;BME280;29815;48.184;11.268;2023-02-11T07:51:41;97310.56;;;-1.55;100.00
43878;BME280;29815;48.184;11.268;2023-02-11T07:54:11;97318.81;;;-1.41;100.00
43878;BME280;29815;48.184;11.268;2023-02-11T07:56:40;97304.97;;;-1.34;100.00
43878;BME280;29815;48.184;11.268;2023-02-11T07:59:11;97305.19;;;-1.28;100.00
43878;BME280;29815;48.184;11.268;2023-02-11T08:01:41;97306.91;;;-1.19;100.00
43878;BME280;29815;48.184;11.268;2023-02-11T08:04:11;97314.53;;;-1.16;100.00
43878;BME280;29815;48.184;11.268;2023-02-11T08:06:42;97307.06;;;-1.20;100.00
43878;BME280;29815;48.184;11.268;2023-02-11T08:09:15;97312.50;;;-1.22;100.00
43878;BME280;29815;48.184;11.268;2023-02-11T08:11:44;97303.19;;;-1.08;100.00
43878;BME280;29815;48.184;11.268;2023-02-11T08:14:15;97298.94;;;-1.01;100.00
43878;BME280;29815;48.184;11.268;2023-02-11T08:16:45;97301.50;;;-0.91;100.00
43878;BME280;29815;48.184;11.268;2023-02-11T08:19:15;97315.44;;;-0.81;100.00
43878;BME280;29815;48.184;11.268;2023-02-11T08:21:45;97309.69;;;-0.77;100.00
43878;BME280;29815;48.184;11.268;2023-02-11T08:24:15;97292.81;;;-0.76;100.00
43878;BME280;29815;48.184;11.268;2023-02-11T08:26:44;97298.78;;;-0.74;100.00
43878;BME280;29815;48.184;11.268;2023-02-11T08:29:16;97306.78;;;-0.65;100.00
43878;BME280;29815;48.184;11.268;2023-02-11T08:31:46;97309.09;;;-0.62;100.00
43878;BME280;29815;48.184;11.268;2023-02-11T08:34:17;97320.22;;;-0.59;100.00
43878;BME280;29815;48.184;11.268;2023-02-11T08:36:47;97323.16;;;-0.62;100.00
43878;BME280;29815;48.184;11.268;2023-02-11T08:39:19;97306.84;;;-0.57;100.00
43878;BME280;29815;48.184;11.268;2023-02-11T08:41:51;97306.69;;;-0.56;100.00
43878;BME280;29815;48.184;11.268;2023-02-11T08:44:24;97296.31;;;-0.41;100.00
43878;BME280;29815;48.184;11.268;2023-02-11T08:46:54;97292.25;;;-0.27;100.00
43878;BME280;29815;48.184;11.268;2023-02-11T08:49:24;97296.59;;;-0.10;100.00
43878;BME280;29815;48.184;11.268;2023-02-11T08:51:53;97296.81;;;0.05;100.00
43878;BME280;29815;48.184;11.268;2023-02-11T08:54:23;97296.16;;;0.11;100.00
43878;BME280;29815;48.184;11.268;2023-02-11T08:56:52;97291.19;;;0.08;100.00
43878;BME280;29815;48.184;11.268;2023-02-11T08:59:24;97293.03;;;0.15;100.00
43878;BME280;29815;48.184;11.268;2023-02-11T09:01:53;97281.13;;;0.27;100.00
43878;BME280;29815;48.184;11.268;2023-02-11T09:04:23;97277.50;;;0.28;100.00
43878;BME280;29815;48.184;11.268;2023-02-11T09:06:53;97278.00;;;0.32;100.00
43878;BME280;29815;48.184;11.268;2023-02-11T09:09:22;97287.28;;;0.36;100.00
43878;BME280;29815;48.184;11.268;2023-02-11T09:11:52;97287.78;;;0.48;100.00
43878;BME280;29815;48.184;11.268;2023-02-11T09:14:26;97288.59;;;0.56;100.00
43878;BME280;29815;48.184;11.268;2023-02-11T09:16:56;97293.44;;;0.69;100.00
43878;BME280;29815;48.184;11.268;2023-02-11T09:19:25;97295.09;;;0.78;100.00
43878;BME280;29815;48.184;11.268;2023-02-11T09:21:55;97296.25;;;0.67;100.00
43878;BME280;29815;48.184;11.268;2023-02-11T09:24:24;97306.84;;;0.67;100.00
43878;BME280;29815;48.184;11.268;2023-02-11T09:26:54;97311.66;;;0.72;100.00
43878;BME280;29815;48.184;11.268;2023-02-11T09:29:25;97315.47;;;0.78;100.00
43878;BME280;29815;48.184;11.268;2023-02-11T09:31:54;97318.28;;;0.92;100.00
43878;BME280;29815;48.184;11.268;2023-02-11T09:34:24;97321.91;;;1.16;100.00
43878;BME280;29815;48.184;11.268;2023-02-11T09:36:54;97310.91;;;1.51;100.00
43878;BME280;29815;48.184;11.268;2023-02-11T09:39:24;97322.09;;;1.78;100.00
43878;BME280;29815;48.184;11.268;2023-02-11T09:42:28;97317.06;;;1.91;100.00
43878;BME280;29815;48.184;11.268;2023-02-11T09:45:14;97311.84;;;2.06;100.00
43878;BME280;29815;48.184;11.268;2023-02-11T09:47:51;97298.22;;;2.09;100.00
43878;BME280;29815;48.184;11.268;2023-02-11T09:50:28;97291.56;;;2.13;100.00
43878;BME280;29815;48.184;11.268;2023-02-11T09:53:02;97277.94;;;2.16;100.00
43878;BME280;29815;48.184;11.268;2023-02-11T09:55:35;97272.38;;;2.25;100.00
43878;BME280;29815;48.184;11.268;2023-02-11T09:58:13;97259.75;;;2.27;100.00
43878;BME280;29815;48.184;11.268;2023-02-11T10:00:59;97253.41;;;2.36;100.00
43878;BME280;29815;48.184;11.268;2023-02-11T10:03:55;97264.50;;;2.40;100.00
43878;BME280;29815;48.184;11.268;2023-02-11T10:06:41;97257.94;;;2.51;100.00
43878;BME280;29815;48.184;11.268;2023-02-11T10:09:39;97260.31;;;2.46;100.00
43878;BME280;29815;48.184;11.268;2023-02-11T10:12:31;97264.06;;;2.51;100.00
43878;BME280;29815;48.184;11.268;2023-02-11T10:15:20;97267.69;;;2.58;100.00
43878;BME280;29815;48.184;11.268;2023-02-11T10:18:26;97275.59;;;2.66;100.00
43878;BME280;29815;48.184;11.268;2023-02-11T10:21:14;97264.69;;;2.61;100.00
43878;BME280;29815;48.184;11.268;2023-02-11T10:23:53;97253.97;;;2.69;100.00
43878;BME280;29815;48.184;11.268;2023-02-11T10:26:35;97262.97;;;2.68;100.00
43878;BME280;29815;48.184;11.268;2023-02-11T10:29:21;97267.94;;;2.71;100.00
43878;BME280;29815;48.184;11.268;2023-02-11T10:31:59;97273.81;;;2.82;100.00
43878;BME280;29815;48.184;11.268;2023-02-11T10:34:30;97267.59;;;2.89;100.00
43878;BME280;29815;48.184;11.268;2023-02-11T10:37:00;97266.53;;;2.98;100.00
43878;BME280;29815;48.184;11.268;2023-02-11T10:39:29;97271.69;;;3.00;100.00
43878;BME280;29815;48.184;11.268;2023-02-11T10:42:04;97269.28;;;3.05;100.00
43878;BME280;29815;48.184;11.268;2023-02-11T10:44:40;97266.78;;;3.03;100.00
43878;BME280;29815;48.184;11.268;2023-02-11T10:47:16;97264.97;;;3.04;100.00
43878;BME280;29815;48.184;11.268;2023-02-11T10:49:48;97259.28;;;3.07;100.00
43878;BME280;29815;48.184;11.268;2023-02-11T10:52:21;97253.44;;;3.12;100.00
43878;BME280;29815;48.184;11.268;2023-02-11T10:55:02;97253.91;;;3.30;100.00
43878;BME280;29815;48.184;11.268;2023-02-11T10:57:36;97253.00;;;3.37;100.00
43878;BME280;29815;48.184;11.268;2023-02-11T11:00:26;97243.56;;;3.50;100.00
43878;BME280;29815;48.184;11.268;2023-02-11T11:03:06;97239.13;;;3.57;100.00
43878;BME280;29815;48.184;11.268;2023-02-11T11:05:51;97235.34;;;3.66;100.00
43878;BME280;29815;48.184;11.268;2023-02-11T11:08:38;97235.00;;;3.69;100.00
43878;BME280;29815;48.184;11.268;2023-02-11T11:11:11;97243.34;;;3.81;100.00
43878;BME280;29815;48.184;11.268;2023-02-11T11:13:54;97237.78;;;3.97;100.00
43878;BME280;29815;48.184;11.268;2023-02-11T11:16:27;97234.56;;;4.01;95.46
43878;BME280;29815;48.184;11.268;2023-02-11T11:19:22;97233.19;;;4.05;94.96
43878;BME280;29815;48.184;11.268;2023-02-11T11:21:54;97231.22;;;4.14;90.17
43878;BME280;29815;48.184;11.268;2023-02-11T11:24:28;97235.50;;;4.30;87.16
43878;BME280;29815;48.184;11.268;2023-02-11T11:27:03;97231.50;;;4.40;77.16
43878;BME280;29815;48.184;11.268;2023-02-11T11:29:36;97214.56;;;4.48;72.99
43878;BME280;29815;48.184;11.268;2023-02-11T11:32:13;97208.72;;;4.59;74.85
43878;BME280;29815;48.184;11.268;2023-02-11T11:34:50;97202.47;;;4.73;73.97
43878;BME280;29815;48.184;11.268;2023-02-11T11:37:26;97206.97;;;4.73;71.44
43878;BME280;29815;48.184;11.268;2023-02-11T11:40:01;97200.25;;;4.77;71.21
43878;BME280;29815;48.184;11.268;2023-02-11T11:42:34;97198.66;;;4.83;68.89
43878;BME280;29815;48.184;11.268;2023-02-11T11:45:23;97205.28;;;4.93;69.45
43878;BME280;29815;48.184;11.268;2023-02-11T11:47:56;97210.28;;;5.03;70.26
43878;BME280;29815;48.184;11.268;2023-02-11T11:50:33;97220.00;;;5.10;69.03
43878;BME280;29815;48.184;11.268;2023-02-11T11:53:11;97218.16;;;5.11;67.10
43878;BME280;29815;48.184;11.268;2023-02-11T11:55:48;97229.91;;;5.17;69.38
43878;BME280;29815;48.184;11.268;2023-02-11T11:58:23;97229.09;;;5.16;65.63
43878;BME280;29815;48.184;11.268;2023-02-11T12:01:02;97215.19;;;5.27;66.21
43878;BME280;29815;48.184;11.268;2023-02-11T12:04:30;97209.78;;;5.21;66.25
43878;BME280;29815;48.184;11.268;2023-02-11T12:07:21;97210.84;;;5.20;66.49
43878;BME280;29815;48.184;11.268;2023-02-11T12:10:28;97208.28;;;5.39;67.38
43878;BME280;29815;48.184;11.268;2023-02-11T12:13:13;97201.59;;;5.57;65.48
43878;BME280;29815;48.184;11.268;2023-02-11T12:16:02;97197.13;;;5.64;64.10
43878;BME280;29815;48.184;11.268;2023-02-11T12:22:20;97199.63;;;5.72;62.87
43878;BME280;29815;48.184;11.268;2023-02-11T12:25:26;97202.28;;;5.72;64.96
43878;BME280;29815;48.184;11.268;2023-02-11T12:28:16;97200.25;;;5.81;63.94
43878;BME280;29815;48.184;11.268;2023-02-11T12:34:07;97195.00;;;5.94;64.90
43878;BME280;29815;48.184;11.268;2023-02-11T12:37:08;97183.59;;;6.26;65.22
43878;BME280;29815;48.184;11.268;2023-02-11T12:39:50;97178.66;;;6.43;64.40
43878;BME280;29815;48.184;11.268;2023-02-11T12:42:46;97167.38;;;6.48;62.67
43878;BME280;29815;48.184;11.268;2023-02-11T12:45:51;97165.91;;;6.38;60.55
43878;BME280;29815;48.184;11.268;2023-02-11T12:48:49;97173.53;;;6.28;61.95
43878;BME280;29815;48.184;11.268;2023-02-11T12:51:38;97177.00;;;6.22;62.70
43878;BME280;29815;48.184;11.268;2023-02-11T12:54:22;97170.22;;;6.26;60.92
43878;BME280;29815;48.184;11.268;2023-02-11T12:56:58;97169.72;;;6.03;61.34
43878;BME280;29815;48.184;11.268;2023-02-11T12:59:43;97174.69;;;5.99;61.48
43878;BME280;29815;48.184;11.268;2023-02-11T13:02:26;97159.88;;;6.10;61.77
43878;BME280;29815;48.184;11.268;2023-02-11T13:05:04;97161.78;;;6.23;63.04
43878;BME280;29815;48.184;11.268;2023-02-11T13:07:44;97154.59;;;6.36;62.61
43878;BME280;29815;48.184;11.268;2023-02-11T13:10:26;97156.66;;;6.48;62.92
43878;BME280;29815;48.184;11.268;2023-02-11T13:13:00;97141.84;;;6.45;62.88
43878;BME280;29815;48.184;11.268;2023-02-11T13:15:55;97149.28;;;6.56;63.44
43878;BME280;29815;48.184;11.268;2023-02-11T13:18:43;97140.22;;;6.70;61.95
43878;BME280;29815;48.184;11.268;2023-02-11T13:21:32;97141.41;;;6.88;61.31
43878;BME280;29815;48.184;11.268;2023-02-11T13:24:33;97149.47;;;6.74;61.07
43878;BME280;29815;48.184;11.268;2023-02-11T13:27:18;97138.97;;;6.79;61.86
43878;BME280;29815;48.184;11.268;2023-02-11T13:30:24;97135.84;;;7.09;60.65
43878;BME280;29815;48.184;11.268;2023-02-11T13:33:19;97134.72;;;7.43;58.81
43878;BME280;29815;48.184;11.268;2023-02-11T13:36:21;97130.06;;;7.70;58.86